Time;durP1;ratioP1;P1;durP2;ratioP2;P2;SDS_P1;SDS_P2;PMS_P1;PMS_P2;Temp;Humidity;BMP_temperature;BMP_pressure;BME280_temperature;BME280_humidity;BME280_pressure;Samples;Min_cycle;Max_cycle;Signal;HPM_P1;HPM_P2
2023/07/30 00:02:16;;;;;;;2.92;2.72;;;17.10;99.90;;;;;;5091018;28;20191;-70
2023/07/30 00:04:43;;;;;;;2.97;2.20;;;17.00;99.90;;;;;;5089112;28;20907;-69
2023/07/30 00:07:10;;;;;;;2.80;2.55;;;17.10;99.90;;;;;;5090686;28;20220;-69
2023/07/30 00:09:38;;;;;;;4.07;2.92;;;17.00;99.90;;;;;;5094161;28;21051;-69
2023/07/30 00:12:06;;;;;;;3.45;2.70;;;17.00;99.90;;;;;;5088902;28;20198;-70
2023/07/30 00:14:33;;;;;;;3.20;2.90;;;17.00;99.90;;;;;;5075418;27;20331;-69
2023/07/30 00:16:59;;;;;;;4.50;2.90;;;16.90;99.90;;;;;;5093627;28;21040;-70
2023/07/30 00:19:26;;;;;;;4.82;3.50;;;17.00;99.90;;;;;;5087805;28;20677;-69
2023/07/30 00:21:53;;;;;;;6.35;3.45;;;;;;;;;;5091034;28;20203;-70
2023/07/30 00:24:20;;;;;;;7.65;3.50;;;16.90;99.90;;;;;;5091524;28;20669;-69
2023/07/30 00:26:48;;;;;;;7.53;3.47;;;16.80;99.90;;;;;;5095860;28;20538;-70
2023/07/30 00:29:15;;;;;;;6.53;3.58;;;16.80;99.90;;;;;;5071545;28;20241;-69
2023/07/30 00:31:42;;;;;;;5.47;4.68;;;16.80;99.90;;;;;;5088549;28;20210;-69
2023/07/30 00:34:09;;;;;;;4.55;3.60;;;16.70;99.90;;;;;;5081723;28;20973;-70
2023/07/30 00:36:35;;;;;;;3.55;3.20;;;16.80;99.90;;;;;;5092583;28;20196;-69
2023/07/30 00:39:03;;;;;;;3.92;3.55;;;16.80;99.90;;;;;;5087776;28;20568;-70
2023/07/30 00:41:29;;;;;;;5.60;3.92;;;16.80;99.90;;;;;;5091020;28;20215;-69
2023/07/30 00:43:57;;;;;;;5.15;4.20;;;16.80;99.90;;;;;;5092668;28;20196;-71
2023/07/30 00:46:25;;;;;;;4.75;4.22;;;16.80;99.90;;;;;;5069525;28;20206;-69
2023/07/30 00:48:51;;;;;;;6.68;4.10;;;17.00;99.90;;;;;;5091887;28;20206;-69
2023/07/30 00:51:20;;;;;;;4.88;4.03;;;16.90;99.90;;;;;;5084815;28;20200;-69
2023/07/30 00:53:47;;;;;;;5.32;4.10;;;16.80;99.90;;;;;;5096030;28;20203;-69
2023/07/30 00:56:14;;;;;;;7.50;4.47;;;17.10;99.90;;;;;;5093058;28;20696;-70
2023/07/30 00:58:41;;;;;;;6.35;4.03;;;16.80;99.90;;;;;;5093192;28;20702;-69
2023/07/30 01:01:10;;;;;;;4.72;4.28;;;16.90;99.90;;;;;;5071261;28;20252;-70
2023/07/30 01:03:37;;;;;;;6.10;4.50;;;16.80;99.90;;;;;;5091025;28;20977;-69
2023/07/30 01:06:04;;;;;;;8.05;4.45;;;16.70;99.90;;;;;;5080857;28;20208;-69
2023/07/30 01:08:31;;;;;;;5.80;4.78;;;16.70;99.90;;;;;;5091454;28;21034;-69
2023/07/30 01:10:59;;;;;;;5.43;4.15;;;16.70;99.90;;;;;;5091134;28;20191;-70
2023/07/30 01:13:28;;;;;;;5.55;4.07;;;16.70;99.90;;;;;;5093774;28;20215;-69
2023/07/30 01:15:55;;;;;;;7.15;4.53;;;16.70;99.90;;;;;;5082108;28;20259;-70
2023/07/30 01:18:23;;;;;;;6.90;3.88;;;16.70;99.90;;;;;;5083145;28;20210;-69
2023/07/30 01:20:54;;;;;;;4.38;3.80;;;16.70;99.90;;;;;;5090838;28;20223;-70
2023/07/30 01:23:21;;;;;;;7.78;4.15;;;16.70;99.90;;;;;;5091392;28;20187;-69
2023/07/30 01:25:54;;;;;;;4.75;4.20;;;16.70;99.90;;;;;;5080940;28;20246;-69
2023/07/30 01:28:22;;;;;;;6.85;4.80;;;16.50;99.90;;;;;;5094749;28;20262;-69
2023/07/30 01:30:49;;;;;;;4.95;4.00;;;16.70;99.90;;;;;;5092565;28;20198;-69
2023/07/30 01:33:16;;;;;;;5.35;3.88;;;16.60;99.90;;;;;;5070472;28;20214;-69
2023/07/30 01:35:44;;;;;;;8.98;4.07;;;16.50;99.90;;;;;;5089473;28;20227;-69
2023/07/30 01:38:13;;;;;;;8.95;3.90;;;16.60;99.90;;;;;;5089599;28;20188;-69
2023/07/30 01:40:41;;;;;;;6.47;3.88;;;16.60;99.90;;;;;;5086657;28;21440;-69
2023/07/30 01:43:08;;;;;;;6.60;3.83;;;16.50;99.90;;;;;;5086368;28;20195;-69
2023/07/30 01:45:35;;;;;;;9.35;3.75;;;16.50;99.90;;;;;;5091886;28;20200;-69
2023/07/30 01:48:02;;;;;;;4.35;3.72;;;16.40;99.90;;;;;;5064696;28;20225;-69
2023/07/30 01:50:29;;;;;;;4.50;3.90;;;16.50;99.90;;;;;;5094848;28;20206;-69
2023/07/30 01:52:56;;;;;;;3.83;3.28;;;16.40;99.90;;;;;;5090336;28;20223;-69
2023/07/30 01:55:24;;;;;;;7.57;4.03;;;16.30;99.90;;;;;;5084659;28;20219;-70
2023/07/30 01:57:51;;;;;;;10.48;4.32;;;16.30;99.90;;;;;;5088129;28;20197;-69
2023/07/30 02:00:17;;;;;;;5.18;3.25;;;16.30;99.90;;;;;;5096779;28;20216;-69
2023/07/30 02:02:44;;;;;;;5.40;3.45;;;16.30;99.90;;;;;;5058631;28;20204;-69
2023/07/30 02:05:11;;;;;;;4.65;4.00;;;16.40;99.90;;;;;;5093676;28;20215;-69
2023/07/30 02:07:38;;;;;;;4.40;3.92;;;16.30;99.90;;;;;;5086191;28;20206;-70
2023/07/30 02:10:05;;;;;;;5.78;4.05;;;16.30;99.90;;;;;;5087969;28;20665;-69
2023/07/30 02:12:33;;;;;;;4.72;3.65;;;16.30;99.90;;;;;;5087527;28;20191;-70
2023/07/30 02:15:00;;;;;;;6.65;4.18;;;16.30;99.90;;;;;;5090314;28;20301;-69
2023/07/30 02:17:27;;;;;;;4.82;3.45;;;16.20;99.90;;;;;;5085328;28;20676;-69
2023/07/30 02:19:53;;;;;;;6.43;4.32;;;16.10;99.90;;;;;;5071611;28;20204;-69
2023/07/30 02:22:20;;;;;;;6.45;4.03;;;16.20;99.90;;;;;;5089802;28;20195;-70
2023/07/30 02:24:47;;;;;;;6.38;3.88;;;16.20;99.90;;;;;;5085645;28;20213;-69
2023/07/30 02:27:14;;;;;;;6.15;3.55;;;16.20;99.90;;;;;;5090424;28;20203;-69
2023/07/30 02:29:42;;;;;;;5.93;3.40;;;16.20;99.90;;;;;;5087991;28;20254;-70
2023/07/30 02:32:09;;;;;;;6.35;3.70;;;16.10;99.90;;;;;;5093887;28;20196;-69
2023/07/30 02:34:36;;;;;;;5.90;3.78;;;16.00;99.90;;;;;;5067943;28;20203;-70
2023/07/30 02:37:03;;;;;;;9.48;3.75;;;16.00;99.90;;;;;;5088238;28;21054;-69
2023/07/30 02:39:29;;;;;;;4.70;3.50;;;16.00;99.90;;;;;;5091153;28;20195;-69
2023/07/30 02:41:56;;;;;;;5.65;4.15;;;16.00;99.90;;;;;;5091523;28;20196;-69
2023/07/30 02:44:23;;;;;;;7.22;3.95;;;16.00;99.90;;;;;;5093947;28;20699;-70
2023/07/30 02:46:51;;;;;;;9.75;4.20;;;16.20;99.90;;;;;;5089821;28;20207;-69
2023/07/30 02:49:18;;;;;;;8.88;4.65;;;16.00;99.90;;;;;;5087745;28;20219;-70
2023/07/30 02:51:48;;;;;;;5.32;3.47;;;16.00;99.90;;;;;;5074068;28;20198;-69
2023/07/30 02:54:16;;;;;;;8.07;3.83;;;16.00;99.90;;;;;;5092207;28;20203;-69
2023/07/30 02:56:43;;;;;;;7.47;4.60;;;15.90;99.90;;;;;;5085854;28;20219;-69
2023/07/30 02:59:10;;;;;;;8.30;3.70;;;15.90;99.90;;;;;;5092467;28;20199;-69
2023/07/30 03:01:37;;;;;;;6.75;3.88;;;16.00;99.90;;;;;;5088979;28;20199;-69
2023/07/30 03:04:06;;;;;;;9.68;4.10;;;15.90;99.90;;;;;;5094800;28;20196;-69
2023/07/30 03:06:33;;;;;;;8.02;3.83;;;15.90;99.90;;;;;;5075197;28;20227;-70
2023/07/30 03:09:00;;;;;;;6.38;3.88;;;16.00;99.90;;;;;;5097221;28;20317;-69
2023/07/30 03:11:26;;;;;;;6.25;3.72;;;15.90;99.90;;;;;;5082921;28;20192;-70
2023/07/30 03:13:53;;;;;;;7.30;4.57;;;15.90;99.90;;;;;;5094502;28;20215;-69
2023/07/30 03:16:20;;;;;;;11.18;4.25;;;16.00;99.90;;;;;;5093968;28;20232;-70
2023/07/30 03:18:46;;;;;;;9.32;4.80;;;15.30;99.90;;;;;;5097828;28;20196;-69
2023/07/30 03:21:15;;;;;;;5.55;3.92;;;15.90;99.90;;;;;;5091219;28;20195;-69
2023/07/30 03:23:44;;;;;;;6.65;4.45;;;16.00;99.90;;;;;;5078621;28;21644;-69
2023/07/30 03:26:10;;;;;;;8.02;4.05;;;16.00;99.90;;;;;;5086118;28;20302;-69
2023/07/30 03:28:37;;;;;;;7.57;4.40;;;16.00;99.90;;;;;;5093138;28;20234;-69
2023/07/30 03:31:04;;;;;;;9.23;4.18;;;15.90;99.90;;;;;;5096114;28;20794;-69
2023/07/30 03:33:31;;;;;;;12.10;4.90;;;15.90;99.90;;;;;;5092792;28;20226;-70
2023/07/30 03:35:58;;;;;;;7.07;4.50;;;15.90;99.90;;;;;;5098966;28;20231;-69
2023/07/30 03:38:26;;;;;;;9.18;4.90;;;16.00;99.90;;;;;;5073096;28;20987;-69
2023/07/30 03:40:53;;;;;;;12.57;4.38;;;15.90;99.90;;;;;;5077798;28;20340;-69
2023/07/30 03:43:20;;;;;;;7.05;4.20;;;;;;;;;;5090195;28;20210;-69
2023/07/30 03:45:48;;;;;;;10.10;4.90;;;15.90;99.90;;;;;;5094234;28;20204;-69
2023/07/30 03:48:15;;;;;;;10.95;3.83;;;16.00;99.90;;;;;;5092395;28;20898;-70
2023/07/30 03:50:42;;;;;;;9.52;4.30;;;16.00;99.90;;;;;;5092142;28;20211;-69
2023/07/30 03:53:08;;;;;;;14.20;4.30;;;15.90;99.90;;;;;;5074220;28;20219;-69
2023/07/30 03:55:37;;;;;;;6.63;3.88;;;16.00;99.90;;;;;;5085780;28;20231;-69
2023/07/30 03:58:03;;;;;;;10.23;4.40;;;16.00;99.90;;;;;;5098038;28;20200;-69
2023/07/30 04:00:30;;;;;;;12.18;4.13;;;15.90;99.90;;;;;;5090721;28;20225;-69
2023/07/30 04:02:57;;;;;;;7.80;3.80;;;15.90;99.90;;;;;;5095591;28;20192;-69
2023/07/30 04:05:24;;;;;;;7.10;3.78;;;15.90;99.90;;;;;;5089841;28;20219;-70
2023/07/30 04:07:51;;;;;;;5.55;3.40;;;;;;;;;;5076995;28;20224;-69
2023/07/30 04:10:18;;;;;;;11.27;3.92;;;15.90;99.90;;;;;;5091675;28;20213;-69
2023/07/30 04:12:46;;;;;;;9.98;4.40;;;16.00;99.90;;;;;;5085941;28;20260;-69
2023/07/30 04:15:13;;;;;;;6.90;4.45;;;16.00;99.90;;;;;;5087019;28;20688;-69
2023/07/30 04:17:40;;;;;;;11.27;3.83;;;16.00;99.90;;;;;;5092169;28;20187;-69
2023/07/30 04:20:09;;;;;;;10.00;4.25;;;16.00;99.90;;;;;;5087621;28;20198;-69
2023/07/30 04:22:36;;;;;;;13.35;3.58;;;16.00;99.90;;;;;;5074087;28;20219;-69
2023/07/30 04:25:02;;;;;;;7.45;3.55;;;16.10;99.90;;;;;;5095111;28;20279;-69
2023/07/30 04:27:29;;;;;;;9.50;3.85;;;16.10;99.90;;;;;;5083587;28;20206;-70
2023/07/30 04:29:57;;;;;;;9.55;3.65;;;16.00;99.90;;;;;;5097102;28;20231;-71
2023/07/30 04:32:24;;;;;;;10.13;3.63;;;16.30;99.90;;;;;;5091389;28;20220;-69
2023/07/30 04:34:51;;;;;;;10.43;3.38;;;16.00;99.90;;;;;;5093842;27;20191;-69
2023/07/30 04:37:18;;;;;;;9.45;3.20;;;16.00;99.90;;;;;;5093834;28;20226;-69
2023/07/30 04:39:44;;;;;;;8.23;3.67;;;16.00;99.90;;;;;;5073527;28;20212;-69
2023/07/30 04:42:13;;;;;;;7.88;3.33;;;16.00;99.90;;;;;;5090371;28;20199;-69
2023/07/30 04:44:39;;;;;;;8.13;3.05;;;16.00;99.90;;;;;;5086396;28;20211;-69
2023/07/30 04:47:08;;;;;;;6.90;3.30;;;16.00;99.90;;;;;;5096359;28;20208;-69
2023/07/30 04:49:36;;;;;;;14.30;3.63;;;16.10;99.90;;;;;;5079113;28;20224;-69
2023/07/30 04:52:04;;;;;;;9.60;4.00;;;16.00;99.90;;;;;;5089924;28;20215;-70
2023/07/30 04:54:30;;;;;;;9.32;4.15;;;16.00;99.90;;;;;;5075891;28;20695;-69
2023/07/30 04:56:57;;;;;;;7.60;3.25;;;16.10;99.90;;;;;;5095033;28;20237;-69
2023/07/30 04:59:24;;;;;;;11.18;3.05;;;16.20;99.90;;;;;;5085421;28;20207;-69
2023/07/30 05:01:51;;;;;;;9.05;2.80;;;16.00;99.90;;;;;;5090062;28;20278;-69
2023/07/30 05:04:19;;;;;;;7.03;2.92;;;16.00;99.90;;;;;;5089774;28;20680;-70
2023/07/30 05:06:46;;;;;;;13.05;3.50;;;16.00;99.90;;;;;;5089425;28;20199;-69
2023/07/30 05:09:12;;;;;;;14.25;3.50;;;16.00;99.90;;;;;;5096034;28;20211;-69
2023/07/30 05:11:40;;;;;;;8.32;3.22;;;16.20;99.90;;;;;;5066788;28;20204;-69
2023/07/30 05:14:06;;;;;;;8.77;3.30;;;16.00;99.90;;;;;;5095392;28;20199;-69
2023/07/30 05:16:33;;;;;;;5.20;2.78;;;16.10;99.90;;;;;;5085465;28;20238;-69
2023/07/30 05:19:00;;;;;;;8.88;3.22;;;16.00;99.90;;;;;;5095549;28;20195;-69
2023/07/30 05:21:28;;;;;;;10.15;2.97;;;16.10;99.90;;;;;;5082633;28;20670;-69
2023/07/30 05:23:55;;;;;;;5.03;2.47;;;16.10;99.90;;;;;;5095445;27;20196;-69
2023/07/30 05:26:22;;;;;;;11.20;3.33;;;16.10;99.90;;;;;;5073543;28;20207;-71
2023/07/30 05:28:48;;;;;;;10.80;3.25;;;16.00;99.90;;;;;;5089403;28;21613;-69
2023/07/30 05:31:15;;;;;;;6.05;3.13;;;16.10;99.90;;;;;;5085154;28;20225;-70
2023/07/30 05:33:42;;;;;;;8.07;2.83;;;16.10;99.90;;;;;;5088275;28;20196;-69
2023/07/30 05:36:09;;;;;;;6.25;2.70;;;16.10;99.90;;;;;;5089750;28;20231;-69
2023/07/30 05:38:37;;;;;;;7.07;2.85;;;16.10;99.90;;;;;;5090980;28;20202;-69
2023/07/30 05:41:03;;;;;;;9.82;2.70;;;16.10;99.90;;;;;;5087559;28;21219;-69
2023/07/30 05:43:30;;;;;;;9.32;3.70;;;16.10;99.90;;;;;;5068260;28;20250;-73
2023/07/30 05:45:57;;;;;;;7.03;2.83;;;16.40;99.90;;;;;;5093683;27;20206;-69
2023/07/30 05:48:24;;;;;;;10.55;3.25;;;16.20;99.90;;;;;;5091585;28;20195;-69
2023/07/30 05:50:51;;;;;;;11.63;3.15;;;16.20;99.90;;;;;;5084169;28;20196;-69
2023/07/30 05:53:17;;;;;;;5.40;2.85;;;16.40;99.90;;;;;;5095080;28;20204;-69
2023/07/30 05:55:45;;;;;;;8.80;2.95;;;16.40;99.90;;;;;;5091144;28;20210;-69
2023/07/30 05:58:12;;;;;;;7.18;3.05;;;16.40;99.90;;;;;;5073722;28;20333;-69
2023/07/30 06:00:39;;;;;;;7.03;2.88;;;16.50;99.90;;;;;;5092681;28;20191;-70
2023/07/30 06:03:07;;;;;;;11.77;3.20;;;16.50;99.90;;;;;;5092063;28;20222;-69
2023/07/30 06:05:34;;;;;;;9.15;3.28;;;16.50;99.90;;;;;;5091683;28;20204;-69
2023/07/30 06:08:02;;;;;;;10.25;3.63;;;16.60;99.90;;;;;;5081514;28;20226;-71
2023/07/30 06:10:29;;;;;;;8.85;2.85;;;16.60;99.90;;;;;;5093032;28;20211;-69
2023/07/30 06:12:58;;;;;;;8.75;3.42;;;16.60;99.90;;;;;;5080453;28;20203;-69
2023/07/30 06:15:25;;;;;;;8.30;3.17;;;16.60;99.90;;;;;;5069784;28;20568;-69
2023/07/30 06:17:51;;;;;;;7.47;3.35;;;16.60;99.90;;;;;;5085049;28;20243;-69
2023/07/30 06:20:18;;;;;;;9.57;3.25;;;16.70;99.90;;;;;;5090007;28;20210;-69
2023/07/30 06:22:45;;;;;;;10.45;3.50;;;16.60;99.90;;;;;;5083294;28;20210;-69
2023/07/30 06:25:12;;;;;;;6.22;3.10;;;16.60;99.90;;;;;;5089798;28;20206;-70
2023/07/30 06:27:38;;;;;;;6.90;3.15;;;16.60;99.90;;;;;;5092483;28;20626;-69
2023/07/30 06:30:08;;;;;;;7.70;3.10;;;16.60;99.90;;;;;;5073398;28;20234;-70
2023/07/30 06:32:35;;;;;;;10.27;4.22;;;16.50;99.90;;;;;;5083910;28;20252;-69
2023/07/30 06:35:02;;;;;;;6.10;3.20;;;16.70;99.90;;;;;;5091300;28;20203;-69
2023/07/30 06:37:29;;;;;;;6.65;3.70;;;16.70;99.90;;;;;;5091515;27;20227;-70
2023/07/30 06:39:56;;;;;;;9.90;3.80;;;16.70;99.90;;;;;;5099101;27;20199;-69
2023/07/30 06:42:23;;;;;;;16.85;3.80;;;16.60;99.90;;;;;;5095431;28;20198;-69
2023/07/30 06:44:50;;;;;;;14.20;4.75;;;16.70;99.90;;;;;;5096892;28;20571;-69
2023/07/30 06:47:18;;;;;;;10.95;4.22;;;17.00;99.90;;;;;;5078544;28;20203;-69
2023/07/30 06:49:45;;;;;;;8.38;4.00;;;16.90;99.90;;;;;;5099797;28;20206;-69
2023/07/30 06:52:11;;;;;;;4.70;3.17;;;16.80;99.90;;;;;;5094331;28;20214;-69
2023/07/30 06:54:38;;;;;;;7.97;3.72;;;17.00;99.90;;;;;;5095108;27;20210;-69
2023/07/30 06:57:05;;;;;;;9.13;3.80;;;17.00;99.90;;;;;;5098616;27;20227;-70
2023/07/30 06:59:32;;;;;;;11.40;4.13;;;17.00;99.90;;;;;;5095832;27;20216;-69
2023/07/30 07:01:59;;;;;;;11.18;4.10;;;17.10;99.90;;;;;;5077507;28;20207;-72
2023/07/30 07:04:27;;;;;;;11.35;3.58;;;17.10;99.90;;;;;;5093162;28;21156;-70
2023/07/30 07:06:54;;;;;;;9.95;4.35;;;17.20;99.90;;;;;;5100719;27;20191;-69
2023/07/30 07:09:21;;;;;;;10.18;4.07;;;17.20;99.90;;;;;;5087905;27;20309;-70
2023/07/30 07:11:47;;;;;;;12.30;3.58;;;17.20;99.90;;;;;;5098218;28;20195;-69
2023/07/30 07:14:14;;;;;;;12.60;4.00;;;17.30;99.90;;;;;;5096227;28;20283;-69
2023/07/30 07:16:41;;;;;;;10.15;4.60;;;17.30;99.90;;;;;;5080945;28;20228;-69
2023/07/30 07:19:08;;;;;;;14.93;3.50;;;17.30;99.90;;;;;;5099301;28;20207;-70
2023/07/30 07:21:36;;;;;;;11.40;3.72;;;17.30;99.90;;;;;;5097411;27;20203;-69
2023/07/30 07:24:03;;;;;;;9.88;3.42;;;17.40;99.90;;;;;;5092333;27;20203;-70
2023/07/30 07:26:29;;;;;;;10.25;3.55;;;17.50;99.90;;;;;;5090416;27;20518;-69
2023/07/30 07:28:57;;;;;;;8.57;3.42;;;17.50;99.90;;;;;;5100986;28;20235;-70
2023/07/30 07:31:23;;;;;;;8.27;3.75;;;17.60;99.90;;;;;;5067110;28;20306;-70
2023/07/30 07:33:51;;;;;;;12.63;4.00;;;17.60;99.90;;;;;;5098395;28;20290;-69
2023/07/30 07:36:18;;;;;;;11.25;3.38;;;17.60;99.90;;;;;;5095251;27;20216;-70
2023/07/30 07:38:46;;;;;;;9.40;3.58;;;17.60;99.90;;;;;;5094996;28;20200;-69
2023/07/30 07:41:15;;;;;;;6.30;3.15;;;17.70;99.90;;;;;;5093047;28;20203;-69
2023/07/30 07:43:42;;;;;;;14.07;3.78;;;17.70;99.90;;;;;;5098691;27;20706;-69
2023/07/30 07:46:13;;;;;;;8.35;3.38;;;17.70;99.90;;;;;;5078314;27;20207;-71
2023/07/30 07:48:41;;;;;;;14.13;3.22;;;17.70;99.90;;;;;;5094060;27;20195;-69
2023/07/30 07:51:08;;;;;;;7.65;3.05;;;17.80;99.90;;;;;;5092963;28;20226;-69
2023/07/30 07:53:34;;;;;;;10.27;2.78;;;17.80;99.90;;;;;;5094159;28;20210;-69
2023/07/30 07:56:03;;;;;;;10.10;3.10;;;17.80;99.90;;;;;;5089869;28;20625;-70
2023/07/30 07:58:30;;;;;;;9.02;3.58;;;17.80;99.90;;;;;;5094034;28;20308;-69
2023/07/30 08:00:57;;;;;;;9.68;3.13;;;17.80;99.90;;;;;;5098895;28;20550;-69
2023/07/30 08:03:26;;;;;;;7.07;3.20;;;17.80;99.90;;;;;;5068577;28;20204;-69
2023/07/30 08:05:53;;;;;;;10.60;3.22;;;17.90;99.90;;;;;;5096483;28;20766;-69
2023/07/30 08:08:20;;;;;;;8.90;2.85;;;17.90;99.90;;;;;;5091542;28;20207;-69
2023/07/30 08:10:47;;;;;;;10.43;3.40;;;17.90;99.90;;;;;;5087935;27;20203;-70
2023/07/30 08:13:15;;;;;;;8.20;3.13;;;17.90;99.90;;;;;;5094958;28;20204;-69
2023/07/30 08:15:42;;;;;;;9.20;2.70;;;17.90;99.90;;;;;;5095973;28;20207;-69
2023/07/30 08:18:09;;;;;;;8.38;2.90;;;17.80;99.90;;;;;;5075441;28;20230;-70
2023/07/30 08:20:36;;;;;;;10.20;3.38;;;17.80;99.90;;;;;;5090022;28;20199;-69
2023/07/30 08:23:03;;;;;;;7.07;2.80;;;18.00;99.90;;;;;;5095151;28;20203;-71
2023/07/30 08:25:30;;;;;;;15.90;3.65;;;18.00;99.90;;;;;;5094571;27;20207;-70
2023/07/30 08:27:57;;;;;;;7.38;2.90;;;18.00;99.90;;;;;;5090312;28;20681;-69
2023/07/30 08:30:25;;;;;;;7.30;3.15;;;18.10;99.90;;;;;;5092713;28;20207;-69
2023/07/30 08:32:52;;;;;;;8.10;2.83;;;18.10;99.90;;;;;;5096775;28;20207;-69
2023/07/30 08:35:18;;;;;;;12.15;2.83;;;18.00;99.90;;;;;;5072927;28;20894;-70
2023/07/30 08:37:45;;;;;;;10.52;3.58;;;18.00;99.90;;;;;;5091158;28;20238;-69
2023/07/30 08:40:12;;;;;;;7.22;3.17;;;18.00;99.90;;;;;;5092113;28;20199;-70
2023/07/30 08:42:39;;;;;;;6.43;2.65;;;18.00;99.90;;;;;;5096093;28;20215;-69
2023/07/30 08:45:07;;;;;;;12.52;3.55;;;17.90;99.90;;;;;;5084440;28;20200;-70
2023/07/30 08:47:36;;;;;;;9.85;2.88;;;18.00;99.90;;;;;;5097054;27;20219;-69
2023/07/30 08:50:03;;;;;;;9.35;3.10;;;17.80;99.90;;;;;;5073038;28;20227;-70
2023/07/30 08:52:31;;;;;;;7.00;2.42;;;17.80;99.90;;;;;;5096199;28;20668;-69
2023/07/30 08:55:01;;;;;;;6.57;2.70;;;18.00;99.90;;;;;;5091470;28;20203;-69
2023/07/30 08:57:29;;;;;;;12.85;2.60;;;17.80;99.90;;;;;;5089844;28;20229;-69
2023/07/30 09:00:03;;;;;;;6.43;2.92;;;17.80;99.90;;;;;;5090723;28;20196;-69
2023/07/30 09:02:35;;;;;;;8.20;3.30;;;17.90;99.90;;;;;;5088232;28;20198;-70
2023/07/30 09:05:05;;;;;;;14.60;3.45;;;18.20;99.90;;;;;;5078234;28;20260;-71
2023/07/30 09:07:32;;;;;;;9.85;3.50;;;17.80;99.90;;;;;;5093250;28;20234;-69
2023/07/30 09:09:59;;;;;;;8.93;3.83;;;17.90;99.90;;;;;;5094481;28;20195;-70
2023/07/30 09:12:31;;;;;;;9.35;3.15;;;17.90;99.90;;;;;;5095839;28;20195;-69
2023/07/30 09:14:58;;;;;;;11.10;3.70;;;18.00;99.90;;;;;;5092579;28;20732;-70
2023/07/30 09:17:25;;;;;;;14.50;4.20;;;18.10;99.90;;;;;;5090012;28;20227;-69
2023/07/30 09:19:52;;;;;;;11.45;4.55;;;18.20;99.90;;;;;;5088829;28;20333;-69
2023/07/30 09:22:27;;;;;;;10.77;4.00;;;18.70;99.90;;;;;;5081169;28;20195;-69
2023/07/30 09:24:55;;;;;;;9.65;4.22;;;18.30;99.90;;;;;;5090228;28;20281;-70
2023/07/30 09:27:25;;;;;;;8.57;3.88;;;18.40;99.90;;;;;;5092066;28;20917;-69
2023/07/30 09:29:53;;;;;;;8.20;3.78;;;18.50;99.90;;;;;;5092946;28;20300;-72
2023/07/30 09:32:20;;;;;;;10.27;4.13;;;18.50;99.90;;;;;;5084422;28;20208;-69
2023/07/30 09:34:47;;;;;;;14.70;4.55;;;18.60;99.90;;;;;;5091935;28;20579;-70
2023/07/30 09:37:15;;;;;;;15.85;4.30;;;18.60;99.90;;;;;;5070696;28;20223;-69
2023/07/30 09:39:44;;;;;;;14.73;4.13;;;18.50;99.90;;;;;;5092298;28;20257;-69
2023/07/30 09:42:11;;;;;;;12.13;4.28;;;18.50;99.90;;;;;;5091282;28;20230;-69
2023/07/30 09:44:39;;;;;;;10.25;3.63;;;18.60;99.90;;;;;;5091679;28;20196;-69
2023/07/30 09:47:09;;;;;;;7.72;3.70;;;18.50;99.90;;;;;;5091100;28;20223;-70
2023/07/30 09:49:36;;;;;;;13.90;3.40;;;18.50;99.90;;;;;;5082481;28;20215;-69
2023/07/30 09:52:04;;;;;;;12.43;3.33;;;18.50;99.90;;;;;;5074934;28;20689;-70
2023/07/30 09:54:32;;;;;;;15.00;3.75;;;18.50;99.90;;;;;;5093132;28;20704;-69
2023/07/30 09:57:00;;;;;;;10.73;3.55;;;18.50;99.90;;;;;;5094173;27;20220;-69
2023/07/30 09:59:28;;;;;;;11.05;3.85;;;18.60;99.90;;;;;;5093731;28;20688;-69
2023/07/30 10:01:56;;;;;;;9.20;3.88;;;18.70;99.90;;;;;;5085681;28;20204;-69
2023/07/30 10:04:23;;;;;;;15.10;3.67;;;18.80;99.90;;;;;;5092899;28;20295;-69
2023/07/30 10:06:55;;;;;;;7.32;3.08;;;18.80;99.90;;;;;;5086435;28;20203;-70
2023/07/30 10:09:23;;;;;;;9.05;3.35;;;18.90;99.90;;;;;;5080173;28;20207;-69
2023/07/30 10:11:53;;;;;;;8.23;3.13;;;19.10;99.90;;;;;;5092100;28;20231;-69
2023/07/30 10:14:23;;;;;;;8.10;2.47;;;19.10;99.90;;;;;;5090389;28;20203;-69
2023/07/30 10:16:55;;;;;;;13.80;3.33;;;19.40;99.90;;;;;;5094161;28;20203;-69
2023/07/30 10:19:26;;;;;;;13.00;3.92;;;19.40;99.90;;;;;;5090874;28;20221;-69
2023/07/30 10:21:58;;;;;;;8.00;2.58;;;19.40;99.90;;;;;;5090313;28;20850;-70
2023/07/30 10:24:26;;;;;;;9.35;3.17;;;19.50;99.90;;;;;;5070618;28;20351;-69
2023/07/30 10:26:57;;;;;;;5.13;2.22;;;19.50;99.90;;;;;;5091624;28;20281;-70
2023/07/30 10:29:25;;;;;;;6.00;2.30;;;19.30;99.90;;;;;;5087769;28;20222;-69
2023/07/30 10:31:55;;;;;;;4.75;1.80;;;19.30;99.90;;;;;;5090055;28;20232;-69
2023/07/30 10:34:23;;;;;;;10.85;3.10;;;19.30;99.90;;;;;;5088785;28;20256;-69
2023/07/30 10:36:51;;;;;;;5.03;2.10;;;19.30;99.90;;;;;;5093390;28;20206;-71
2023/07/30 10:39:19;;;;;;;9.88;2.80;;;19.80;99.90;;;;;;5072447;28;21433;-69
2023/07/30 10:41:49;;;;;;;7.72;1.88;;;19.30;99.90;;;;;;5092244;28;20199;-69
2023/07/30 10:44:22;;;;;;;8.68;2.55;;;19.20;99.90;;;;;;5090422;28;20211;-69
2023/07/30 10:46:50;;;;;;;6.07;2.33;;;19.20;99.90;;;;;;5092909;28;20192;-70
2023/07/30 10:49:17;;;;;;;7.45;2.22;;;19.20;99.90;;;;;;5090364;28;20199;-69
2023/07/30 10:51:44;;;;;;;4.03;2.28;;;19.10;99.90;;;;;;5093683;28;20192;-69
2023/07/30 10:54:11;;;;;;;7.68;1.77;;;19.10;99.90;;;;;;5070063;28;20204;-69
2023/07/30 10:56:38;;;;;;;17.45;3.05;;;19.10;99.90;;;;;;5091050;28;20198;-69
2023/07/30 10:59:07;;;;;;;7.03;2.47;;;19.30;99.90;;;;;;5089140;28;20234;-69
2023/07/30 11:01:39;;;;;;;6.97;2.40;;;19.30;99.90;;;;;;5094657;28;20641;-70
2023/07/30 11:04:12;;;;;;;5.45;2.30;;;19.40;99.90;;;;;;5088636;28;20253;-69
2023/07/30 11:06:39;;;;;;;10.20;2.47;;;19.40;99.90;;;;;;5093059;28;20192;-69
2023/07/30 11:09:06;;;;;;;7.47;2.30;;;19.40;99.90;;;;;;5089007;28;20200;-69
2023/07/30 11:11:33;;;;;;;8.35;2.67;;;19.40;99.90;;;;;;5073301;28;20690;-69
2023/07/30 11:14:00;;;;;;;7.75;2.75;;;19.40;99.90;;;;;;5092760;28;20206;-69
2023/07/30 11:16:27;;;;;;;5.53;2.15;;;19.40;99.90;;;;;;5088632;28;20196;-69
2023/07/30 11:18:54;;;;;;;9.38;2.80;;;19.30;99.90;;;;;;5091360;28;20223;-69
2023/07/30 11:21:22;;;;;;;6.07;1.75;;;18.90;99.90;;;;;;5092135;28;20206;-69
2023/07/30 11:23:52;;;;;;;5.68;1.50;;;18.90;99.90;;;;;;5093075;28;20658;-69
2023/07/30 11:26:20;;;;;;;5.65;1.60;;;18.00;99.90;;;;;;5075112;28;20620;-68
2023/07/30 11:28:47;;;;;;;4.32;1.65;;;17.90;99.90;;;;;;5095893;28;20317;-69
2023/07/30 11:31:16;;;;;;;5.72;1.83;;;17.20;99.90;;;;;;5095352;28;20199;-69
2023/07/30 11:33:45;;;;;;;3.60;1.52;;;17.10;99.90;;;;;;5095900;28;20227;-69
2023/07/30 11:36:15;;;;;;;3.00;1.67;;;16.50;99.90;;;;;;5093183;28;20233;-69
2023/07/30 11:38:44;;;;;;;5.10;1.55;;;16.50;99.90;;;;;;5096066;28;20597;-69
2023/07/30 11:41:12;;;;;;;3.72;1.73;;;16.40;99.90;;;;;;5072812;28;20225;-69
2023/07/30 11:43:40;;;;;;;3.55;1.67;;;16.40;99.90;;;;;;5098408;28;20297;-69
2023/07/30 11:46:09;;;;;;;4.75;1.40;;;16.20;99.90;;;;;;5090352;28;20192;-69
2023/07/30 11:48:36;;;;;;;5.07;1.77;;;16.30;99.90;;;;;;5095495;28;20568;-69
2023/07/30 11:51:03;;;;;;;3.55;1.77;;;16.20;99.90;;;;;;5094397;27;20216;-69
2023/07/30 11:53:51;;;;;;;5.93;2.28;;;16.10;99.90;;;;;;5095735;28;20195;-69
2023/07/30 11:56:19;;;;;;;4.43;1.45;;;16.00;99.90;;;;;;5072363;28;20344;-69
2023/07/30 11:58:47;;;;;;;3.97;1.55;;;15.90;99.90;;;;;;5092648;28;20323;-69
2023/07/30 12:01:14;;;;;;;3.97;1.60;;;15.70;99.90;;;;;;5088974;28;20199;-69
2023/07/30 12:03:42;;;;;;;3.85;1.67;;;15.80;99.90;;;;;;5095883;28;20199;-69
2023/07/30 12:06:10;;;;;;;4.20;1.63;;;15.50;99.90;;;;;;5089121;28;20203;-70
2023/07/30 12:08:37;;;;;;;3.03;1.27;;;15.60;99.90;;;;;;5098871;28;20200;-69
2023/07/30 12:11:06;;;;;;;5.60;1.77;;;15.60;99.90;;;;;;5090993;28;20199;-74
2023/07/30 12:13:33;;;;;;;2.85;1.40;;;15.60;99.90;;;;;;5077876;28;20241;-69
2023/07/30 12:16:00;;;;;;;3.40;1.33;;;15.70;99.90;;;;;;5094873;28;20199;-71
2023/07/30 12:18:28;;;;;;;2.35;1.20;;;15.70;99.90;;;;;;5096365;27;20222;-69
2023/07/30 12:20:56;;;;;;;1.98;1.55;;;15.90;99.90;;;;;;5092029;28;20268;-69
2023/07/30 12:23:23;;;;;;;3.47;1.33;;;16.30;99.90;;;;;;5092020;28;20196;-69
2023/07/30 12:25:50;;;;;;;3.67;1.67;;;15.80;99.90;;;;;;5091832;28;20226;-69
2023/07/30 12:28:18;;;;;;;3.00;1.55;;;15.90;99.90;;;;;;5064175;28;20264;-69
2023/07/30 12:30:45;;;;;;;3.15;1.40;;;16.00;99.90;;;;;;5093114;28;20199;-69
2023/07/30 12:33:12;;;;;;;2.20;1.45;;;16.30;99.90;;;;;;5090880;28;20868;-68
2023/07/30 12:35:38;;;;;;;2.67;1.30;;;16.30;99.90;;;;;;5095508;28;20225;-69
2023/07/30 12:38:05;;;;;;;2.90;1.30;;;16.60;99.90;;;;;;5093859;28;20234;-70
2023/07/30 12:40:33;;;;;;;5.18;1.92;;;16.60;99.90;;;;;;5094116;28;20661;-69
2023/07/30 12:43:02;;;;;;;2.03;1.30;;;16.80;99.90;;;;;;5080479;28;20195;-71
2023/07/30 12:45:31;;;;;;;2.78;1.38;;;16.60;99.90;;;;;;5089390;28;20656;-69
2023/07/30 12:47:58;;;;;;;2.78;1.17;;;17.00;99.90;;;;;;5088844;28;20223;-70